Anch, Alaska
Current Conditions -  °F | °C
As of 4:58 AM on Saturday 20 Dec 2014 (Local Time) from PAED Reporting Station
Clear Clear  
Wind Chill: 14°   Ceiling: Unl
Heat Index: 22°   Visibility: 10mi
Dew Point: 14°   Wind: 6mph
Humidity: 72%   Direction: NA
Pressure: 29.01"   Gusts: NA
Location:  61.2265°N, 149.62°W
Report Text: PAED 201358Z AUTO VRB05KT 10SM CLR M06/M10 A2901 RMK AO2 SLP822 T10561099
Loading
Personal Weather Stations






























Interactive Weather Map New forecast layout! Learn more

10-Day Weather Forecast

Advertisements
Track Severe Weather on mobile